Time;durP1;ratioP1;P1;durP2;ratioP2;P2;SDS_P1;SDS_P2;PMS_P1;PMS_P2;Temp;Humidity;BMP_temperature;BMP_pressure;BME280_temperature;BME280_humidity;BME280_pressure;Samples;Min_cycle;Max_cycle;Signal;HPM_P1;HPM_P2
2024/01/02 00:03:45;;;;;;;1.65;0.70;;;9.30;99.90;;;;;;10030506;28;20106;-71
2024/01/02 00:08:36;;;;;;;1.70;0.90;;;9.30;99.90;;;;;;9997345;28;20038;-70
2024/01/02 00:13:27;;;;;;;1.02;0.65;;;9.30;99.90;;;;;;10040240;28;20105;-70
2024/01/02 00:18:17;;;;;;;1.60;0.80;;;9.40;99.90;;;;;;10048794;28;20030;-70
2024/01/02 00:23:08;;;;;;;1.75;0.82;;;9.40;99.90;;;;;;10024809;28;20483;-70
2024/01/02 00:27:59;;;;;;;2.72;0.50;;;9.40;99.90;;;;;;10032063;28;20470;-70
2024/01/02 00:32:50;;;;;;;1.63;0.90;;;9.40;99.90;;;;;;10004066;28;20096;-70
2024/01/02 00:37:41;;;;;;;0.88;0.68;;;9.40;99.90;;;;;;10028490;28;20464;-70
2024/01/02 00:42:32;;;;;;;1.00;0.60;;;9.50;99.90;;;;;;10030284;28;20033;-70
2024/01/02 00:47:23;;;;;;;0.98;0.40;;;9.50;99.90;;;;;;10031928;28;20044;-70
2024/01/02 00:52:13;;;;;;;1.90;0.60;;;9.50;99.90;;;;;;10035003;28;20033;-70
2024/01/02 00:57:04;;;;;;;0.45;0.35;;;9.50;99.90;;;;;;10022428;28;20491;-70
2024/01/02 01:01:55;;;;;;;1.13;0.50;;;9.50;99.90;;;;;;10028045;28;20532;-70
2024/01/02 01:06:46;;;;;;;0.73;0.47;;;9.40;99.90;;;;;;10019315;28;20034;-69
2024/01/02 01:11:36;;;;;;;1.95;0.68;;;9.40;99.90;;;;;;10031136;28;20045;-69
2024/01/02 01:16:27;;;;;;;0.60;0.35;;;9.50;99.90;;;;;;10035318;28;20513;-69
2024/01/02 01:21:19;;;;;;;1.15;0.40;;;9.50;99.90;;;;;;10027126;28;20033;-69
2024/01/02 01:26:09;;;;;;;2.17;0.40;;;9.50;99.90;;;;;;10007154;28;20049;-69
2024/01/02 01:31:00;;;;;;;0.85;0.50;;;9.50;99.90;;;;;;10049957;28;20033;-69
2024/01/02 01:35:51;;;;;;;1.00;0.45;;;9.50;99.90;;;;;;10037532;28;20033;-69
2024/01/02 01:40:41;;;;;;;2.72;0.63;;;9.50;99.90;;;;;;10042365;28;20040;-69
2024/01/02 01:45:32;;;;;;;3.35;0.40;;;9.50;99.90;;;;;;10035124;28;20034;-69
2024/01/02 01:50:23;;;;;;;0.68;0.35;;;9.50;99.90;;;;;;10032213;28;20038;-69
2024/01/02 01:55:13;;;;;;;2.05;0.80;;;9.50;99.90;;;;;;10025908;28;20580;-69
2024/01/02 02:00:05;;;;;;;0.70;0.40;;;9.50;99.90;;;;;;10029474;28;20491;-69
2024/01/02 02:04:56;;;;;;;0.52;0.30;;;9.50;99.90;;;;;;10023118;28;20028;-69
2024/01/02 02:09:47;;;;;;;0.35;0.35;;;9.40;99.90;;;;;;10012715;28;20538;-69
2024/01/02 02:14:37;;;;;;;2.53;0.60;;;9.40;99.90;;;;;;10042434;28;20029;-69
2024/01/02 02:19:28;;;;;;;3.25;0.65;;;9.40;99.90;;;;;;10017695;28;20052;-69
2024/01/02 02:24:19;;;;;;;1.67;0.57;;;9.40;99.90;;;;;;10024618;28;20105;-69
2024/01/02 02:29:09;;;;;;;2.72;0.43;;;9.30;99.90;;;;;;10016695;28;20076;-69
2024/01/02 02:34:00;;;;;;;2.80;0.50;;;9.30;99.90;;;;;;10013234;28;20026;-69
2024/01/02 02:38:51;;;;;;;0.30;0.30;;;9.40;99.90;;;;;;10035725;28;20144;-69
2024/01/02 02:43:41;;;;;;;0.73;0.30;;;9.40;99.90;;;;;;10002188;28;20026;-68
2024/01/02 02:48:32;;;;;;;0.50;0.40;;;9.30;99.90;;;;;;10015866;28;20558;-69
2024/01/02 02:53:23;;;;;;;0.70;0.30;;;9.30;99.90;;;;;;10030856;28;20078;-68
2024/01/02 02:58:13;;;;;;;0.73;0.45;;;9.30;99.90;;;;;;10018871;28;20045;-69
2024/01/02 03:03:04;;;;;;;1.00;0.32;;;9.30;99.90;;;;;;10015666;28;20041;-70
2024/01/02 03:07:57;;;;;;;0.85;0.50;;;9.30;99.90;;;;;;10017379;28;20112;-70
2024/01/02 03:12:48;;;;;;;0.40;0.38;;;9.30;99.90;;;;;;10022611;28;20030;-70
2024/01/02 03:17:39;;;;;;;1.15;0.30;;;9.30;99.90;;;;;;10022160;28;20038;-70
2024/01/02 03:22:29;;;;;;;0.60;0.40;;;9.20;99.90;;;;;;10022607;28;20084;-70
2024/01/02 03:27:20;;;;;;;0.60;0.30;;;9.10;99.90;;;;;;10024495;28;20038;-70
2024/01/02 03:32:11;;;;;;;5.70;0.40;;;9.20;99.90;;;;;;10019269;28;20112;-70
2024/01/02 03:37:01;;;;;;;0.63;0.20;;;9.20;99.90;;;;;;10025917;28;20570;-70
2024/01/02 03:41:52;;;;;;;0.10;0.10;;;9.20;99.90;;;;;;10038683;28;20034;-70
2024/01/02 03:46:43;;;;;;;2.15;0.43;;;9.20;99.90;;;;;;10034090;28;20026;-70
2024/01/02 03:51:33;;;;;;;0.10;0.10;;;9.10;99.90;;;;;;10034677;28;20033;-70
2024/01/02 03:56:24;;;;;;;0.70;0.60;;;9.10;99.90;;;;;;10034908;28;20034;-70
2024/01/02 04:01:14;;;;;;;0.28;0.25;;;9.10;99.90;;;;;;10015851;28;20038;-70
2024/01/02 04:06:05;;;;;;;0.45;0.20;;;9.10;99.90;;;;;;10012040;28;20026;-69
2024/01/02 04:10:56;;;;;;;1.33;0.32;;;9.20;99.90;;;;;;9997956;28;20026;-69
2024/01/02 04:15:46;;;;;;;0.30;0.30;;;9.20;99.90;;;;;;10001288;28;20133;-69
2024/01/02 04:20:37;;;;;;;0.40;0.20;;;9.20;99.90;;;;;;10036252;28;20410;-70
2024/01/02 04:25:28;;;;;;;0.35;0.10;;;9.30;99.90;;;;;;10028553;28;20022;-70
2024/01/02 04:30:18;;;;;;;1.25;0.30;;;9.20;99.90;;;;;;10042254;28;20040;-70
2024/01/02 04:35:09;;;;;;;0.20;0.20;;;9.20;99.90;;;;;;10038978;28;20029;-70
2024/01/02 04:40:00;;;;;;;0.10;0.10;;;9.20;99.90;;;;;;10020788;28;20513;-70
2024/01/02 04:44:53;;;;;;;1.17;0.20;;;9.20;99.90;;;;;;10047654;28;20029;-70
2024/01/02 04:49:44;;;;;;;0.43;0.30;;;9.20;99.90;;;;;;10038082;28;20037;-69
2024/01/02 04:54:35;;;;;;;0.30;0.10;;;9.20;99.90;;;;;;10041759;28;20487;-69
2024/01/02 04:59:26;;;;;;;0.22;0.17;;;9.20;99.90;;;;;;10027274;28;20075;-69
2024/01/02 05:04:16;;;;;;;0.35;0.10;;;9.20;99.90;;;;;;10020222;28;20077;-69
2024/01/02 05:09:08;;;;;;;0.38;0.20;;;9.20;99.90;;;;;;10002876;28;20076;-69
2024/01/02 05:13:59;;;;;;;0.00;0.00;;;9.20;99.90;;;;;;10034699;28;20812;-69
2024/01/02 05:18:49;;;;;;;0.52;0.17;;;9.20;99.90;;;;;;10017974;28;20038;-69
2024/01/02 05:23:40;;;;;;;0.47;0.38;;;9.30;99.90;;;;;;10015373;28;20057;-69
2024/01/02 05:28:31;;;;;;;1.15;0.40;;;9.30;99.90;;;;;;10019048;28;20054;-69
2024/01/02 05:33:21;;;;;;;1.80;0.20;;;9.40;99.90;;;;;;10021027;28;20072;-69
2024/01/02 05:38:13;;;;;;;0.20;0.10;;;9.30;99.90;;;;;;10027121;28;20030;-70
2024/01/02 05:43:03;;;;;;;1.52;0.17;;;9.40;99.90;;;;;;10020320;28;20143;-69
2024/01/02 05:47:54;;;;;;;0.32;0.10;;;9.40;99.90;;;;;;10043708;28;20502;-69
2024/01/02 05:52:46;;;;;;;0.77;0.30;;;9.40;99.90;;;;;;10037990;28;20043;-70
2024/01/02 05:57:37;;;;;;;0.10;0.10;;;9.40;99.90;;;;;;10030876;28;20029;-69
2024/01/02 06:02:27;;;;;;;0.40;0.10;;;9.40;99.90;;;;;;10003212;28;20050;-69
2024/01/02 06:07:18;;;;;;;0.10;0.10;;;9.40;99.90;;;;;;10018809;28;20029;-69
2024/01/02 06:12:09;;;;;;;0.30;0.25;;;9.50;99.90;;;;;;10004198;28;20054;-69
2024/01/02 06:17:02;;;;;;;0.25;0.10;;;9.50;99.90;;;;;;10025332;28;20037;-69
2024/01/02 06:21:53;;;;;;;0.73;0.52;;;9.50;99.90;;;;;;10017819;28;20045;-70
2024/01/02 06:26:44;;;;;;;0.08;0.00;;;9.50;99.90;;;;;;10006743;28;20100;-69
2024/01/02 06:31:38;;;;;;;0.45;0.15;;;9.50;99.90;;;;;;9992368;28;20353;-70
2024/01/02 06:36:29;;;;;;;0.32;0.10;;;9.60;99.90;;;;;;9997799;28;20030;-69
2024/01/02 06:41:20;;;;;;;0.10;0.10;;;9.60;99.90;;;;;;10028671;28;20038;-70
2024/01/02 06:46:13;;;;;;;0.10;0.10;;;9.60;99.90;;;;;;10024948;28;20037;-69
2024/01/02 06:51:04;;;;;;;0.15;0.13;;;9.60;99.90;;;;;;10011924;28;20030;-70
2024/01/02 06:55:55;;;;;;;0.10;0.10;;;9.70;99.90;;;;;;10020988;28;20022;-69
2024/01/02 07:00:46;;;;;;;0.63;0.20;;;9.60;99.90;;;;;;10023511;28;20077;-70
2024/01/02 07:05:36;;;;;;;0.10;0.10;;;9.70;99.90;;;;;;10020895;28;20029;-69
2024/01/02 07:10:27;;;;;;;0.00;0.00;;;9.70;99.90;;;;;;10007809;28;20041;-68
2024/01/02 07:15:18;;;;;;;1.40;0.20;;;9.70;99.90;;;;;;10010435;28;20443;-69
2024/01/02 07:20:09;;;;;;;0.25;0.10;;;9.70;99.90;;;;;;10002917;28;20045;-70
2024/01/02 07:24:59;;;;;;;0.10;0.10;;;9.70;99.90;;;;;;10013935;28;20558;-69
2024/01/02 07:29:51;;;;;;;0.38;0.25;;;9.80;99.90;;;;;;10009344;28;20054;-68
2024/01/02 07:34:42;;;;;;;0.20;0.17;;;9.80;99.90;;;;;;10008702;28;20077;-68
2024/01/02 07:39:35;;;;;;;0.38;0.20;;;9.80;99.90;;;;;;10017907;28;20029;-70
2024/01/02 07:44:25;;;;;;;0.50;0.22;;;9.80;99.90;;;;;;10015551;28;20034;-68
2024/01/02 07:49:16;;;;;;;0.73;0.30;;;9.90;99.90;;;;;;10026930;28;20029;-70
2024/01/02 07:54:07;;;;;;;0.60;0.13;;;9.90;99.90;;;;;;10010322;28;20034;-69
2024/01/02 07:58:58;;;;;;;0.10;0.10;;;9.80;99.90;;;;;;10024788;28;20040;-71
2024/01/02 08:03:48;;;;;;;1.48;0.20;;;9.80;99.90;;;;;;10018607;28;20136;-68
2024/01/02 08:08:39;;;;;;;0.20;0.20;;;9.80;99.90;;;;;;10013873;28;20141;-68
2024/01/02 08:13:30;;;;;;;0.15;0.10;;;9.80;99.90;;;;;;10016882;28;20080;-68
2024/01/02 08:18:21;;;;;;;0.82;0.35;;;9.80;99.90;;;;;;10030552;28;20034;-69
2024/01/02 08:23:12;;;;;;;0.38;0.20;;;9.80;99.90;;;;;;10019327;28;20515;-68
2024/01/02 08:28:03;;;;;;;0.40;0.22;;;9.80;99.90;;;;;;10017579;28;20057;-69
2024/01/02 08:32:54;;;;;;;0.20;0.13;;;9.80;99.90;;;;;;10019282;28;20048;-70
2024/01/02 08:37:45;;;;;;;0.60;0.30;;;9.80;99.90;;;;;;10018785;28;20033;-70
2024/01/02 08:42:36;;;;;;;0.43;0.25;;;9.80;99.90;;;;;;10006042;28;20435;-69
2024/01/02 08:47:26;;;;;;;0.10;0.10;;;9.90;99.90;;;;;;10024893;28;20021;-70
2024/01/02 08:52:18;;;;;;;0.75;0.38;;;9.90;99.90;;;;;;10025835;28;20462;-72
2024/01/02 08:57:08;;;;;;;1.73;0.22;;;9.90;99.90;;;;;;10015542;28;20053;-72
2024/01/02 09:01:59;;;;;;;0.40;0.28;;;9.90;99.90;;;;;;10011475;28;20095;-72
2024/01/02 09:06:51;;;;;;;0.20;0.20;;;9.90;99.90;;;;;;10022436;28;20048;-70
2024/01/02 09:11:42;;;;;;;1.08;0.30;;;10.00;99.90;;;;;;10018871;28;20029;-69
2024/01/02 09:16:35;;;;;;;0.30;0.30;;;10.00;99.90;;;;;;10026871;28;20029;-70
2024/01/02 09:21:26;;;;;;;0.50;0.32;;;10.00;99.90;;;;;;10027647;28;20496;-72
2024/01/02 09:26:22;;;;;;;0.73;0.50;;;10.10;99.90;;;;;;10012162;28;20050;-72
2024/01/02 09:31:13;;;;;;;1.67;0.43;;;10.00;99.90;;;;;;10016916;28;20395;-75
2024/01/02 09:36:04;;;;;;;0.50;0.40;;;10.10;99.90;;;;;;10012854;28;20026;-72
2024/01/02 09:41:25;;;;;;;0.55;0.20;;;10.10;99.90;;;;;;10033867;28;20125;-76
2024/01/02 09:46:36;;;;;;;0.47;0.30;;;10.10;99.90;;;;;;10033909;28;20053;-74
2024/01/02 09:51:45;;;;;;;1.65;0.75;;;10.10;99.90;;;;;;10017328;28;20030;-72
2024/01/02 09:56:55;;;;;;;0.40;0.30;;;10.20;99.90;;;;;;10007509;28;20461;-72
2024/01/02 10:02:09;;;;;;;0.38;0.38;;;10.20;99.90;;;;;;10021391;28;20049;-72
2024/01/02 10:07:18;;;;;;;0.85;0.55;;;10.30;99.90;;;;;;10015506;28;20030;-70
2024/01/02 10:12:08;;;;;;;0.20;0.20;;;10.30;99.90;;;;;;10024902;28;20040;-71
2024/01/02 10:17:13;;;;;;;1.02;0.20;;;10.30;99.90;;;;;;10028836;28;20422;-70
2024/01/02 10:22:27;;;;;;;1.13;0.52;;;10.40;99.90;;;;;;10019846;28;20037;-70
2024/01/02 10:27:43;;;;;;;1.00;0.73;;;10.40;99.90;;;;;;10020385;28;20052;-79
2024/01/02 10:32:54;;;;;;;0.13;0.13;;;10.50;99.90;;;;;;10016737;28;20034;-73
2024/01/02 10:38:15;;;;;;;0.50;0.20;;;10.40;99.90;;;;;;10020962;28;20026;-75
2024/01/02 10:43:07;;;;;;;0.82;0.30;;;10.40;99.90;;;;;;10025551;28;20078;-76
2024/01/02 10:48:37;;;;;;;0.68;0.38;;;10.50;99.90;;;;;;10018773;28;20026;-72
2024/01/02 10:53:39;;;;;;;1.15;0.30;;;10.60;99.90;;;;;;10007275;28;20125;-72
2024/01/02 10:58:36;;;;;;;0.50;0.20;;;10.60;99.90;;;;;;10016437;28;20885;-72
2024/01/02 11:03:30;;;;;;;0.30;0.20;;;10.60;99.90;;;;;;10019321;28;20404;-72
2024/01/02 11:08:33;;;;;;;1.35;0.40;;;10.70;99.90;;;;;;10000470;28;20018;-71
2024/01/02 11:13:29;;;;;;;1.00;0.35;;;10.70;99.90;;;;;;9999344;28;20097;-72
2024/01/02 11:18:21;;;;;;;0.20;0.17;;;10.70;99.90;;;;;;10020781;28;20033;-72
2024/01/02 11:23:15;;;;;;;1.50;0.32;;;10.70;99.90;;;;;;10016890;28;20038;-72
2024/01/02 11:28:11;;;;;;;0.40;0.30;;;10.80;99.90;;;;;;9996679;28;20077;-73
2024/01/02 11:33:21;;;;;;;0.40;0.30;;;10.80;99.90;;;;;;10015958;28;20034;-73
2024/01/02 11:38:14;;;;;;;0.52;0.40;;;10.80;99.90;;;;;;10015027;28;20026;-71
2024/01/02 11:43:32;;;;;;;0.65;0.65;;;10.80;99.90;;;;;;10035699;28;20038;-71
2024/01/02 11:48:41;;;;;;;0.65;0.32;;;10.90;99.90;;;;;;10008614;28;20021;-72
2024/01/02 11:54:02;;;;;;;0.90;0.60;;;10.90;99.90;;;;;;10029485;28;20033;-73
2024/01/02 11:59:39;;;;;;;1.20;0.40;;;10.90;99.90;;;;;;10004533;28;20018;-70
2024/01/02 12:04:41;;;;;;;1.30;0.40;;;10.90;99.90;;;;;;9994135;28;20033;-73
2024/01/02 12:09:39;;;;;;;0.75;0.30;;;10.90;99.90;;;;;;10009664;28;20036;-73
2024/01/02 12:15:05;;;;;;;1.40;0.40;;;10.90;99.90;;;;;;10025138;28;20598;-72
2024/01/02 12:20:06;;;;;;;0.55;0.55;;;10.90;99.90;;;;;;10014914;28;20113;-71
2024/01/02 12:24:57;;;;;;;2.38;0.63;;;10.90;99.90;;;;;;10011730;28;20408;-73
2024/01/02 12:29:57;;;;;;;0.57;0.55;;;10.90;99.90;;;;;;10011874;28;20058;-74
2024/01/02 12:34:54;;;;;;;0.60;0.50;;;10.90;99.90;;;;;;9992988;28;20029;-74
2024/01/02 12:39:52;;;;;;;0.20;0.20;;;10.80;99.90;;;;;;10016119;28;20048;-68
2024/01/02 12:44:45;;;;;;;0.60;0.20;;;10.90;99.90;;;;;;10006743;28;20031;-67
2024/01/02 12:49:59;;;;;;;1.23;0.30;;;10.90;99.90;;;;;;10016141;28;20061;-66
2024/01/02 12:54:54;;;;;;;0.93;0.35;;;10.90;99.90;;;;;;9991248;28;20037;-67
2024/01/02 12:59:45;;;;;;;0.47;0.30;;;10.90;99.90;;;;;;10012977;28;20064;-67
2024/01/02 13:04:37;;;;;;;0.63;0.30;;;10.90;99.90;;;;;;10011198;28;20033;-67
2024/01/02 13:09:28;;;;;;;0.68;0.68;;;10.90;99.90;;;;;;10010188;28;20087;-67
2024/01/02 13:14:19;;;;;;;0.82;0.40;;;10.90;99.90;;;;;;10010455;28;20153;-66
2024/01/02 13:19:17;;;;;;;0.57;0.35;;;10.90;99.90;;;;;;10016366;28;20100;-65
2024/01/02 13:24:09;;;;;;;0.98;0.60;;;11.00;99.90;;;;;;10010408;28;20018;-66
2024/01/02 13:29:08;;;;;;;0.65;0.30;;;10.90;99.90;;;;;;10015580;28;20056;-69
2024/01/02 13:34:01;;;;;;;0.32;0.30;;;11.00;99.90;;;;;;10009121;28;20108;-69
2024/01/02 13:38:52;;;;;;;0.32;0.32;;;11.00;99.90;;;;;;10008337;28;20042;-68
2024/01/02 13:43:43;;;;;;;0.35;0.30;;;11.00;99.90;;;;;;10009815;28;20484;-68
2024/01/02 13:48:33;;;;;;;0.90;0.30;;;11.00;99.90;;;;;;10010338;28;20026;-66
2024/01/02 13:53:24;;;;;;;0.93;0.30;;;11.00;99.90;;;;;;10012782;28;20041;-67
2024/01/02 13:58:15;;;;;;;0.28;0.20;;;11.00;99.90;;;;;;10007787;28;20029;-66
2024/01/02 14:03:08;;;;;;;1.50;0.43;;;11.00;99.90;;;;;;10005445;28;20538;-69
2024/01/02 14:07:59;;;;;;;1.23;0.32;;;11.00;99.90;;;;;;10007269;28;20398;-69
2024/01/02 14:12:51;;;;;;;0.63;0.30;;;11.00;99.90;;;;;;10005459;28;20030;-71
2024/01/02 14:17:44;;;;;;;0.60;0.40;;;11.00;99.90;;;;;;10016271;28;20044;-67
2024/01/02 14:23:01;;;;;;;0.70;0.40;;;11.00;99.90;;;;;;10012750;28;20108;-69
2024/01/02 14:27:56;;;;;;;0.40;0.30;;;11.00;99.90;;;;;;10020634;28;20045;-70
2024/01/02 14:33:21;;;;;;;2.72;1.75;;;11.00;99.90;;;;;;10019618;28;20030;-69
2024/01/02 14:38:46;;;;;;;1.13;0.60;;;11.00;99.90;;;;;;9950315;28;20061;-72
2024/01/02 14:43:56;;;;;;;0.45;0.45;;;11.00;99.90;;;;;;10021392;28;20120;-71
2024/01/02 14:49:12;;;;;;;0.70;0.32;;;10.90;99.90;;;;;;10032547;28;20061;-69
2024/01/02 14:54:31;;;;;;;0.70;0.40;;;11.00;99.90;;;;;;10036153;28;20022;-70
2024/01/02 14:59:33;;;;;;;0.52;0.50;;;10.90;99.90;;;;;;10035808;28;20296;-74
2024/01/02 15:04:33;;;;;;;0.70;0.50;;;10.90;99.90;;;;;;10009851;28;20033;-72
2024/01/02 15:09:35;;;;;;;1.27;0.50;;;10.90;99.90;;;;;;10009141;28;20034;-76
2024/01/02 15:14:43;;;;;;;0.40;0.30;;;10.90;99.90;;;;;;10030593;28;20025;-72
2024/01/02 15:19:52;;;;;;;0.50;0.20;;;10.90;99.90;;;;;;10031697;28;20045;-77
2024/01/02 15:24:57;;;;;;;1.25;0.40;;;10.90;99.90;;;;;;10022674;28;20049;-78
2024/01/02 15:29:55;;;;;;;0.45;0.30;;;10.90;99.90;;;;;;9992797;28;20046;-80
2024/01/02 15:35:07;;;;;;;0.68;0.30;;;10.90;99.90;;;;;;10020037;28;20265;-77
2024/01/02 15:40:08;;;;;;;2.10;0.52;;;10.90;99.90;;;;;;10016336;28;20140;-75
2024/01/02 15:45:05;;;;;;;0.77;0.40;;;11.00;99.90;;;;;;10039424;28;20788;-77
2024/01/02 15:50:03;;;;;;;1.00;0.47;;;10.90;99.90;;;;;;10040112;28;20099;-76
2024/01/02 15:55:04;;;;;;;1.00;0.35;;;10.90;99.90;;;;;;10028530;28;20149;-75
2024/01/02 16:00:09;;;;;;;2.03;0.60;;;10.90;99.90;;;;;;10014958;28;20041;-75
2024/01/02 16:05:08;;;;;;;0.67;0.47;;;10.90;99.90;;;;;;10028125;28;20030;-72
2024/01/02 16:10:10;;;;;;;0.77;0.32;;;10.90;99.90;;;;;;10020239;28;20400;-72
2024/01/02 16:15:26;;;;;;;0.45;0.40;;;10.90;99.90;;;;;;10000292;28;20041;-74
2024/01/02 16:20:26;;;;;;;0.77;0.32;;;10.90;99.90;;;;;;10016572;28;20037;-70
2024/01/02 16:25:37;;;;;;;0.40;0.30;;;10.90;99.90;;;;;;10018241;28;20163;-75
2024/01/02 16:30:46;;;;;;;1.08;0.55;;;11.00;99.90;;;;;;9986661;28;20037;-76
2024/01/02 16:36:04;;;;;;;0.90;0.40;;;10.90;99.90;;;;;;9987351;28;20026;-76
2024/01/02 16:41:20;;;;;;;0.73;0.50;;;10.90;99.90;;;;;;9996016;28;20037;-74
2024/01/02 16:46:11;;;;;;;1.30;0.38;;;11.00;99.90;;;;;;9993818;28;20138;-75
2024/01/02 16:51:03;;;;;;;1.52;0.68;;;10.90;99.90;;;;;;9968956;28;20655;-74
2024/01/02 16:55:54;;;;;;;1.25;0.60;;;10.90;99.90;;;;;;9990684;28;20049;-75
2024/01/02 17:00:46;;;;;;;0.40;0.40;;;11.00;99.90;;;;;;9989992;28;20459;-72
2024/01/02 17:05:37;;;;;;;0.85;0.52;;;10.90;99.90;;;;;;9984768;28;20417;-72
2024/01/02 17:10:30;;;;;;;0.70;0.40;;;10.90;99.90;;;;;;9974789;28;20029;-72
2024/01/02 17:15:21;;;;;;;0.68;0.50;;;10.90;99.90;;;;;;10000734;28;20030;-75
2024/01/02 17:20:12;;;;;;;1.17;0.40;;;10.90;99.90;;;;;;9998258;28;20048;-74
2024/01/02 17:25:04;;;;;;;0.98;0.52;;;10.90;99.90;;;;;;9976447;28;20412;-73
2024/01/02 17:29:55;;;;;;;1.25;0.60;;;10.90;99.90;;;;;;10021170;28;20137;-74
2024/01/02 17:34:46;;;;;;;0.40;0.32;;;11.00;99.90;;;;;;10028819;28;20029;-74
2024/01/02 17:39:38;;;;;;;0.75;0.40;;;10.90;99.90;;;;;;10018902;28;20384;-74
2024/01/02 17:44:30;;;;;;;1.45;0.30;;;11.00;99.90;;;;;;10019417;28;20058;-71
2024/01/02 17:49:22;;;;;;;0.60;0.30;;;11.00;99.90;;;;;;10013122;28;20041;-73
2024/01/02 17:54:13;;;;;;;2.33;0.60;;;11.00;99.90;;;;;;9995155;28;20037;-74
2024/01/02 17:59:24;;;;;;;0.68;0.32;;;11.00;99.90;;;;;;10004656;28;20046;-72
2024/01/02 18:04:23;;;;;;;3.00;0.70;;;11.00;99.90;;;;;;10018275;28;20029;-74
2024/01/02 18:09:41;;;;;;;1.50;0.47;;;11.00;99.90;;;;;;10029955;28;20038;-72
2024/01/02 18:14:52;;;;;;;1.65;0.40;;;11.10;99.90;;;;;;10034965;28;20049;-72
2024/01/02 18:19:57;;;;;;;0.40;0.30;;;11.10;99.90;;;;;;10035879;28;20064;-75
2024/01/02 18:25:20;;;;;;;1.00;0.60;;;11.10;99.90;;;;;;10016744;28;20111;-72
2024/01/02 18:30:17;;;;;;;1.27;0.68;;;11.00;99.90;;;;;;9997486;28;20042;-71
2024/01/02 18:35:12;;;;;;;0.77;0.40;;;11.00;99.90;;;;;;10016026;28;20456;-72
2024/01/02 18:40:14;;;;;;;1.33;0.70;;;11.10;99.90;;;;;;10020442;28;20042;-73
2024/01/02 18:45:37;;;;;;;0.45;0.20;;;11.10;99.90;;;;;;10006750;28;20033;-71
2024/01/02 18:50:32;;;;;;;0.60;0.40;;;11.10;99.90;;;;;;10005175;28;20033;-71
2024/01/02 18:55:22;;;;;;;1.25;1.13;;;11.10;99.90;;;;;;10014982;28;20108;-71
2024/01/02 19:00:13;;;;;;;0.95;0.60;;;11.20;99.90;;;;;;10003664;28;20038;-72
2024/01/02 19:05:08;;;;;;;2.13;1.00;;;11.20;99.90;;;;;;9992781;28;20049;-70
2024/01/02 19:10:01;;;;;;;1.45;0.40;;;11.20;99.90;;;;;;9995934;28;20029;-70
2024/01/02 19:14:59;;;;;;;0.70;0.47;;;11.20;99.90;;;;;;10003488;28;20169;-70
2024/01/02 19:19:51;;;;;;;1.30;1.20;;;11.30;99.90;;;;;;10010474;28;20049;-70
2024/01/02 19:24:43;;;;;;;0.70;0.50;;;11.30;99.90;;;;;;10007679;28;20077;-71
2024/01/02 19:29:36;;;;;;;1.40;0.47;;;11.30;99.90;;;;;;9996985;28;20129;-71
2024/01/02 19:34:27;;;;;;;0.40;0.40;;;11.30;99.90;;;;;;10005052;28;20110;-70
2024/01/02 19:39:21;;;;;;;1.75;0.73;;;11.30;99.90;;;;;;10018633;28;20128;-70
2024/01/02 19:44:11;;;;;;;1.30;0.63;;;11.40;99.90;;;;;;10010561;28;20371;-70
2024/01/02 19:49:02;;;;;;;2.47;0.77;;;11.40;99.90;;;;;;10021527;28;20041;-72
2024/01/02 19:53:53;;;;;;;0.40;0.35;;;11.50;99.90;;;;;;10015895;28;20037;-71
2024/01/02 19:58:44;;;;;;;0.95;0.38;;;11.60;99.90;;;;;;10000410;28;20045;-72
2024/01/02 20:03:44;;;;;;;1.27;0.75;;;11.70;99.90;;;;;;10030933;28;20046;-69
2024/01/02 20:08:41;;;;;;;1.05;0.50;;;11.70;99.90;;;;;;10002212;28;20420;-69
2024/01/02 20:13:31;;;;;;;0.35;0.32;;;11.70;99.90;;;;;;9984922;28;20026;-69
2024/01/02 20:18:22;;;;;;;1.33;0.52;;;11.90;99.90;;;;;;10005791;28;20034;-67
2024/01/02 20:23:12;;;;;;;0.75;0.35;;;11.90;99.90;;;;;;9994601;28;20048;-68
2024/01/02 20:28:03;;;;;;;0.25;0.22;;;11.90;99.90;;;;;;10005704;28;20050;-69
2024/01/02 20:33:00;;;;;;;0.52;0.30;;;11.90;99.90;;;;;;9999807;28;20400;-68
2024/01/02 20:37:50;;;;;;;0.40;0.30;;;11.90;99.90;;;;;;9998287;28;20419;-71
2024/01/02 20:42:42;;;;;;;0.35;0.22;;;12.00;99.90;;;;;;10010274;28;20049;-69
2024/01/02 20:47:46;;;;;;;0.20;0.20;;;12.10;99.90;;;;;;9999249;28;20076;-70
2024/01/02 20:52:37;;;;;;;0.45;0.30;;;12.10;99.90;;;;;;10019521;28;20034;-71
2024/01/02 20:57:28;;;;;;;0.10;0.10;;;12.10;99.90;;;;;;10008543;28;20026;-70
2024/01/02 21:02:20;;;;;;;0.88;0.20;;;12.20;99.90;;;;;;10005324;28;20136;-71
2024/01/02 21:07:19;;;;;;;0.30;0.30;;;12.20;99.90;;;;;;10004869;28;20057;-68
2024/01/02 21:12:31;;;;;;;0.40;0.40;;;12.20;99.90;;;;;;10016784;28;20042;-71
2024/01/02 21:17:34;;;;;;;0.17;0.10;;;12.20;99.90;;;;;;10018955;28;20624;-71
2024/01/02 21:22:31;;;;;;;0.75;0.38;;;12.20;99.90;;;;;;10012862;28;20499;-74
2024/01/02 21:27:24;;;;;;;1.27;0.40;;;12.20;99.90;;;;;;10006351;28;20277;-73
2024/01/02 21:32:15;;;;;;;0.95;0.25;;;12.20;99.90;;;;;;10021693;28;20475;-71
2024/01/02 21:37:08;;;;;;;0.25;0.20;;;12.10;99.90;;;;;;10001662;28;20026;-70
2024/01/02 21:41:59;;;;;;;0.35;0.13;;;12.10;99.90;;;;;;10001545;28;20034;-70
2024/01/02 21:46:59;;;;;;;0.40;0.30;;;12.00;99.90;;;;;;10019633;28;20041;-71
2024/01/02 21:51:52;;;;;;;1.25;0.20;;;12.00;99.90;;;;;;9993669;28;20049;-70
2024/01/02 21:56:42;;;;;;;0.43;0.30;;;12.00;99.90;;;;;;10042666;28;20025;-70
2024/01/02 22:01:36;;;;;;;0.73;0.30;;;12.00;99.90;;;;;;10040834;28;20495;-71
2024/01/02 22:06:35;;;;;;;0.85;0.30;;;12.10;99.90;;;;;;10016949;28;20025;-69
2024/01/02 22:11:47;;;;;;;0.95;0.20;;;12.10;99.90;;;;;;10021104;28;20468;-70
2024/01/02 22:16:38;;;;;;;0.17;0.17;;;12.00;99.90;;;;;;10021743;28;20026;-70
2024/01/02 22:21:37;;;;;;;0.20;0.20;;;12.00;99.90;;;;;;10016508;28;20428;-70
2024/01/02 22:26:28;;;;;;;0.40;0.22;;;11.90;99.90;;;;;;10015845;28;20050;-72
2024/01/02 22:31:20;;;;;;;0.28;0.28;;;11.90;99.90;;;;;;10000305;28;20030;-70
2024/01/02 22:36:19;;;;;;;0.80;0.80;;;11.90;99.90;;;;;;10021466;28;20033;-71
2024/01/02 22:41:10;;;;;;;1.00;0.20;;;11.90;99.90;;;;;;10014275;28;20044;-71
2024/01/02 22:46:00;;;;;;;0.30;0.10;;;11.90;99.90;;;;;;10011205;28;20033;-71
2024/01/02 22:50:51;;;;;;;0.13;0.10;;;11.90;99.90;;;;;;10018401;28;20053;-71
2024/01/02 22:55:41;;;;;;;0.15;0.10;;;11.90;99.90;;;;;;10019703;28;20495;-70
2024/01/02 23:00:34;;;;;;;0.40;0.30;;;12.00;99.90;;;;;;10017239;28;20514;-71
2024/01/02 23:05:24;;;;;;;0.77;0.40;;;12.00;99.90;;;;;;9998523;28;20029;-70
2024/01/02 23:10:16;;;;;;;0.32;0.30;;;12.10;99.90;;;;;;10018148;28;20025;-70
2024/01/02 23:15:15;;;;;;;0.52;0.28;;;12.00;99.90;;;;;;10024135;28;20021;-70
2024/01/02 23:20:27;;;;;;;1.48;0.60;;;12.10;99.90;;;;;;10022475;28;20042;-70
2024/01/02 23:25:18;;;;;;;0.80;0.30;;;12.10;99.90;;;;;;10013375;28;20021;-69
2024/01/02 23:30:12;;;;;;;1.60;0.73;;;12.10;99.90;;;;;;10011159;28;20450;-70
2024/01/02 23:35:05;;;;;;;1.05;0.50;;;12.10;99.90;;;;;;10022247;28;20109;-70
2024/01/02 23:40:00;;;;;;;2.08;1.23;;;12.10;99.90;;;;;;10027410;28;20042;-70
2024/01/02 23:44:51;;;;;;;1.83;0.60;;;12.10;99.90;;;;;;10002839;28;20064;-69
2024/01/02 23:49:42;;;;;;;1.33;0.47;;;12.10;99.90;;;;;;10021672;28;20061;-70
2024/01/02 23:54:45;;;;;;;0.68;0.38;;;12.10;99.90;;;;;;10027065;28;20083;-69
2024/01/02 23:59:37;;;;;;;3.65;0.80;;;12.20;99.90;;;;;;10012153;28;20038;-69
